sensor_id;sensor_type;location;lat;lon;timestamp;P1;durP1;ratioP1;P2;durP2;ratioP2
48777;SDS011;34578;0.000;0.000;2023-03-31T00:04:15;5.03;;;1.00;;
48777;SDS011;34578;0.000;0.000;2023-03-31T00:09:15;2.03;;;0.80;;
48777;SDS011;34578;0.000;0.000;2023-03-31T00:14:18;4.00;;;0.75;;
48777;SDS011;34578;0.000;0.000;2023-03-31T00:19:20;1.90;;;0.73;;
48777;SDS011;34578;0.000;0.000;2023-03-31T00:24:20;1.40;;;0.70;;
48777;SDS011;34578;0.000;0.000;2023-03-31T00:29:20;1.30;;;0.47;;
48777;SDS011;34578;0.000;0.000;2023-03-31T00:34:23;0.70;;;0.47;;
48777;SDS011;34578;0.000;0.000;2023-03-31T00:39:23;1.47;;;0.67;;
48777;SDS011;34578;0.000;0.000;2023-03-31T00:44:23;0.70;;;0.40;;
48777;SDS011;34578;0.000;0.000;2023-03-31T00:49:28;1.00;;;0.68;;
48777;SDS011;34578;0.000;0.000;2023-03-31T00:54:36;1.95;;;0.70;;
48777;SDS011;34578;0.000;0.000;2023-03-31T00:59:46;1.05;;;0.60;;
48777;SDS011;34578;0.000;0.000;2023-03-31T01:04:56;2.25;;;0.98;;
48777;SDS011;34578;0.000;0.000;2023-03-31T01:10:01;1.10;;;0.52;;
48777;SDS011;34578;0.000;0.000;2023-03-31T01:15:04;2.63;;;0.90;;
48777;SDS011;34578;0.000;0.000;2023-03-31T01:30:42;1.08;;;0.45;;
48777;SDS011;34578;0.000;0.000;2023-03-31T01:41:44;1.27;;;0.80;;
48777;SDS011;34578;0.000;0.000;2023-03-31T01:46:57;0.90;;;0.40;;
48777;SDS011;34578;0.000;0.000;2023-03-31T01:57:30;1.30;;;0.50;;
48777;SDS011;34578;0.000;0.000;2023-03-31T02:02:37;1.63;;;0.75;;
48777;SDS011;34578;0.000;0.000;2023-03-31T02:07:42;0.90;;;0.43;;
48777;SDS011;34578;0.000;0.000;2023-03-31T02:12:47;1.08;;;0.50;;
48777;SDS011;34578;0.000;0.000;2023-03-31T02:17:50;1.55;;;0.75;;
48777;SDS011;34578;0.000;0.000;2023-03-31T02:28:00;1.20;;;0.80;;
48777;SDS011;34578;0.000;0.000;2023-03-31T02:33:07;0.77;;;0.60;;
48777;SDS011;34578;0.000;0.000;2023-03-31T02:38:08;0.85;;;0.60;;
48777;SDS011;34578;0.000;0.000;2023-03-31T02:43:10;1.20;;;0.68;;
48777;SDS011;34578;0.000;0.000;2023-03-31T02:48:33;0.85;;;0.55;;
48777;SDS011;34578;0.000;0.000;2023-03-31T03:20:31;1.02;;;0.80;;
48777;SDS011;34578;0.000;0.000;2023-03-31T03:25:35;1.20;;;0.68;;
48777;SDS011;34578;0.000;0.000;2023-03-31T03:30:35;1.63;;;0.50;;
48777;SDS011;34578;0.000;0.000;2023-03-31T03:35:36;1.50;;;0.80;;
48777;SDS011;34578;0.000;0.000;2023-03-31T03:40:37;2.13;;;1.00;;
48777;SDS011;34578;0.000;0.000;2023-03-31T03:45:37;1.93;;;1.40;;
48777;SDS011;34578;0.000;0.000;2023-03-31T03:50:37;0.57;;;0.40;;
48777;SDS011;34578;0.000;0.000;2023-03-31T03:55:38;1.03;;;0.83;;
48777;SDS011;34578;0.000;0.000;2023-03-31T04:00:38;1.73;;;0.60;;
48777;SDS011;34578;0.000;0.000;2023-03-31T04:05:39;1.23;;;0.50;;
48777;SDS011;34578;0.000;0.000;2023-03-31T04:10:42;0.68;;;0.40;;
48777;SDS011;34578;0.000;0.000;2023-03-31T04:15:48;2.80;;;0.70;;
48777;SDS011;34578;0.000;0.000;2023-03-31T04:20:49;1.80;;;0.70;;
48777;SDS011;34578;0.000;0.000;2023-03-31T04:25:53;1.27;;;0.70;;
48777;SDS011;34578;0.000;0.000;2023-03-31T04:30:54;1.07;;;0.73;;
48777;SDS011;34578;0.000;0.000;2023-03-31T04:35:57;0.30;;;0.30;;
48777;SDS011;34578;0.000;0.000;2023-03-31T04:41:05;1.48;;;0.70;;
48777;SDS011;34578;0.000;0.000;2023-03-31T04:46:06;1.70;;;0.70;;
48777;SDS011;34578;0.000;0.000;2023-03-31T04:51:07;4.78;;;0.90;;
48777;SDS011;34578;0.000;0.000;2023-03-31T04:56:08;5.03;;;1.13;;
48777;SDS011;34578;0.000;0.000;2023-03-31T05:01:08;0.90;;;0.50;;
48777;SDS011;34578;0.000;0.000;2023-03-31T05:06:15;0.65;;;0.50;;
48777;SDS011;34578;0.000;0.000;2023-03-31T05:11:16;2.85;;;0.70;;
48777;SDS011;34578;0.000;0.000;2023-03-31T05:16:16;3.97;;;0.60;;
48777;SDS011;34578;0.000;0.000;2023-03-31T05:21:18;1.50;;;0.68;;
48777;SDS011;34578;0.000;0.000;2023-03-31T05:26:20;3.60;;;0.90;;
48777;SDS011;34578;0.000;0.000;2023-03-31T05:31:24;12.73;;;2.65;;
48777;SDS011;34578;0.000;0.000;2023-03-31T05:36:25;4.22;;;0.90;;
48777;SDS011;34578;0.000;0.000;2023-03-31T05:41:26;6.38;;;1.05;;
48777;SDS011;34578;0.000;0.000;2023-03-31T05:46:27;3.20;;;1.35;;
48777;SDS011;34578;0.000;0.000;2023-03-31T05:51:27;2.53;;;1.30;;
48777;SDS011;34578;0.000;0.000;2023-03-31T05:56:27;24.63;;;2.83;;
48777;SDS011;34578;0.000;0.000;2023-03-31T06:01:28;13.50;;;4.72;;
48777;SDS011;34578;0.000;0.000;2023-03-31T06:06:28;6.93;;;2.58;;
48777;SDS011;34578;0.000;0.000;2023-03-31T06:11:33;5.78;;;1.55;;
48777;SDS011;34578;0.000;0.000;2023-03-31T06:16:34;6.95;;;1.58;;
48777;SDS011;34578;0.000;0.000;2023-03-31T06:21:35;10.32;;;2.10;;
48777;SDS011;34578;0.000;0.000;2023-03-31T06:26:35;10.02;;;1.98;;
48777;SDS011;34578;0.000;0.000;2023-03-31T06:31:37;7.63;;;2.20;;
48777;SDS011;34578;0.000;0.000;2023-03-31T06:36:38;4.47;;;1.80;;
48777;SDS011;34578;0.000;0.000;2023-03-31T06:41:38;7.20;;;1.43;;
48777;SDS011;34578;0.000;0.000;2023-03-31T06:46:39;4.13;;;1.80;;
48777;SDS011;34578;0.000;0.000;2023-03-31T06:51:39;3.72;;;1.60;;
48777;SDS011;34578;0.000;0.000;2023-03-31T06:56:39;12.33;;;2.97;;
48777;SDS011;34578;0.000;0.000;2023-03-31T07:01:40;8.17;;;3.00;;
48777;SDS011;34578;0.000;0.000;2023-03-31T07:06:41;7.93;;;2.58;;
48777;SDS011;34578;0.000;0.000;2023-03-31T07:11:41;14.37;;;6.50;;
48777;SDS011;34578;0.000;0.000;2023-03-31T07:16:42;12.17;;;7.17;;
48777;SDS011;34578;0.000;0.000;2023-03-31T07:21:42;19.07;;;6.57;;
48777;SDS011;34578;0.000;0.000;2023-03-31T07:26:42;6.50;;;3.80;;
48777;SDS011;34578;0.000;0.000;2023-03-31T07:31:45;11.48;;;6.68;;
48777;SDS011;34578;0.000;0.000;2023-03-31T07:36:46;10.43;;;5.25;;
48777;SDS011;34578;0.000;0.000;2023-03-31T07:41:46;25.63;;;6.03;;
48777;SDS011;34578;0.000;0.000;2023-03-31T07:46:47;18.83;;;5.82;;
48777;SDS011;34578;0.000;0.000;2023-03-31T07:51:47;17.53;;;5.73;;
48777;SDS011;34578;0.000;0.000;2023-03-31T07:56:47;10.57;;;4.90;;
48777;SDS011;34578;0.000;0.000;2023-03-31T08:01:48;11.03;;;5.03;;
48777;SDS011;34578;0.000;0.000;2023-03-31T08:06:48;11.23;;;4.70;;
48777;SDS011;34578;0.000;0.000;2023-03-31T08:11:50;15.48;;;5.07;;
48777;SDS011;34578;0.000;0.000;2023-03-31T08:16:50;10.07;;;4.93;;
48777;SDS011;34578;0.000;0.000;2023-03-31T08:21:55;21.27;;;7.50;;
48777;SDS011;34578;0.000;0.000;2023-03-31T08:26:55;13.60;;;8.37;;
48777;SDS011;34578;0.000;0.000;2023-03-31T08:31:56;12.30;;;5.88;;
48777;SDS011;34578;0.000;0.000;2023-03-31T08:36:56;11.02;;;5.07;;
48777;SDS011;34578;0.000;0.000;2023-03-31T08:41:59;6.40;;;3.53;;
48777;SDS011;34578;0.000;0.000;2023-03-31T08:47:02;7.60;;;3.78;;
48777;SDS011;34578;0.000;0.000;2023-03-31T08:52:06;7.80;;;4.43;;
48777;SDS011;34578;0.000;0.000;2023-03-31T08:57:24;8.65;;;4.45;;
48777;SDS011;34578;0.000;0.000;2023-03-31T09:18:35;18.02;;;9.32;;
48777;SDS011;34578;0.000;0.000;2023-03-31T09:23:38;12.35;;;5.57;;
48777;SDS011;34578;0.000;0.000;2023-03-31T09:28:44;52.72;;;11.55;;
48777;SDS011;34578;0.000;0.000;2023-03-31T09:33:46;25.13;;;9.23;;
48777;SDS011;34578;0.000;0.000;2023-03-31T09:38:50;22.05;;;9.32;;
48777;SDS011;34578;0.000;0.000;2023-03-31T09:43:50;23.03;;;7.13;;
48777;SDS011;34578;0.000;0.000;2023-03-31T09:48:53;20.10;;;6.63;;
48777;SDS011;34578;0.000;0.000;2023-03-31T09:54:17;28.02;;;7.32;;
48777;SDS011;34578;0.000;0.000;2023-03-31T09:59:33;24.77;;;6.57;;
48777;SDS011;34578;0.000;0.000;2023-03-31T10:04:35;15.20;;;6.07;;
48777;SDS011;34578;0.000;0.000;2023-03-31T10:09:45;18.55;;;6.40;;
48777;SDS011;34578;0.000;0.000;2023-03-31T10:14:47;19.33;;;5.57;;
48777;SDS011;34578;0.000;0.000;2023-03-31T10:19:50;20.92;;;5.80;;
48777;SDS011;34578;0.000;0.000;2023-03-31T10:25:06;18.30;;;5.60;;
48777;SDS011;34578;0.000;0.000;2023-03-31T10:30:22;12.15;;;6.68;;
48777;SDS011;34578;0.000;0.000;2023-03-31T10:35:26;16.20;;;6.10;;
48777;SDS011;34578;0.000;0.000;2023-03-31T10:40:31;13.13;;;5.78;;
48777;SDS011;34578;0.000;0.000;2023-03-31T10:45:50;11.38;;;6.18;;
48777;SDS011;34578;0.000;0.000;2023-03-31T10:50:54;11.73;;;6.35;;
48777;SDS011;34578;0.000;0.000;2023-03-31T10:56:08;14.60;;;7.18;;
48777;SDS011;34578;0.000;0.000;2023-03-31T11:01:33;13.98;;;8.30;;
48777;SDS011;34578;0.000;0.000;2023-03-31T11:22:33;20.85;;;6.80;;
48777;SDS011;34578;0.000;0.000;2023-03-31T11:32:47;16.58;;;5.47;;
48777;SDS011;34578;0.000;0.000;2023-03-31T11:38:13;11.75;;;4.70;;
48777;SDS011;34578;0.000;0.000;2023-03-31T11:48:50;14.38;;;4.30;;
48777;SDS011;34578;0.000;0.000;2023-03-31T11:53:58;10.85;;;4.60;;
48777;SDS011;34578;0.000;0.000;2023-03-31T11:59:02;10.27;;;4.60;;
48777;SDS011;34578;0.000;0.000;2023-03-31T12:09:25;8.43;;;3.92;;
48777;SDS011;34578;0.000;0.000;2023-03-31T12:19:52;7.70;;;3.97;;
48777;SDS011;34578;0.000;0.000;2023-03-31T12:24:56;8.68;;;3.10;;
48777;SDS011;34578;0.000;0.000;2023-03-31T12:29:58;8.48;;;3.95;;
48777;SDS011;34578;0.000;0.000;2023-03-31T12:45:30;11.93;;;3.42;;
48777;SDS011;34578;0.000;0.000;2023-03-31T12:55:54;15.73;;;4.15;;
48777;SDS011;34578;0.000;0.000;2023-03-31T13:01:10;10.40;;;2.88;;
48777;SDS011;34578;0.000;0.000;2023-03-31T13:16:33;10.40;;;1.92;;
48777;SDS011;34578;0.000;0.000;2023-03-31T13:21:50;4.97;;;2.22;;
48777;SDS011;34578;0.000;0.000;2023-03-31T13:26:53;10.15;;;2.67;;
48777;SDS011;34578;0.000;0.000;2023-03-31T13:37:20;14.88;;;4.50;;
48777;SDS011;34578;0.000;0.000;2023-03-31T13:42:42;16.85;;;4.53;;
48777;SDS011;34578;0.000;0.000;2023-03-31T13:48:12;8.90;;;3.17;;
48777;SDS011;34578;0.000;0.000;2023-03-31T13:53:31;14.43;;;3.97;;
48777;SDS011;34578;0.000;0.000;2023-03-31T14:14:38;10.48;;;2.40;;
48777;SDS011;34578;0.000;0.000;2023-03-31T14:35:42;6.78;;;2.75;;
48777;SDS011;34578;0.000;0.000;2023-03-31T14:41:12;10.88;;;2.28;;
48777;SDS011;34578;0.000;0.000;2023-03-31T14:46:29;5.95;;;2.55;;
48777;SDS011;34578;0.000;0.000;2023-03-31T14:51:33;17.70;;;3.35;;
48777;SDS011;34578;0.000;0.000;2023-03-31T14:56:36;8.68;;;2.78;;
48777;SDS011;34578;0.000;0.000;2023-03-31T15:01:40;6.50;;;1.83;;
48777;SDS011;34578;0.000;0.000;2023-03-31T15:06:40;5.88;;;2.85;;
48777;SDS011;34578;0.000;0.000;2023-03-31T15:11:45;3.33;;;1.70;;
48777;SDS011;34578;0.000;0.000;2023-03-31T15:16:48;5.07;;;2.35;;
48777;SDS011;34578;0.000;0.000;2023-03-31T15:22:32;7.38;;;2.53;;
48777;SDS011;34578;0.000;0.000;2023-03-31T15:27:17;7.50;;;2.20;;
48777;SDS011;34578;0.000;0.000;2023-03-31T15:32:29;3.95;;;1.95;;
48777;SDS011;34578;0.000;0.000;2023-03-31T15:37:37;3.10;;;1.60;;
48777;SDS011;34578;0.000;0.000;2023-03-31T15:47:50;6.43;;;2.13;;
48777;SDS011;34578;0.000;0.000;2023-03-31T15:52:52;5.32;;;2.05;;
48777;SDS011;34578;0.000;0.000;2023-03-31T15:57:55;5.63;;;1.90;;
48777;SDS011;34578;0.000;0.000;2023-03-31T16:02:57;5.78;;;1.58;;
48777;SDS011;34578;0.000;0.000;2023-03-31T16:08:00;2.97;;;1.48;;
48777;SDS011;34578;0.000;0.000;2023-03-31T16:13:02;5.15;;;2.05;;
48777;SDS011;34578;0.000;0.000;2023-03-31T16:18:16;5.75;;;1.55;;
48777;SDS011;34578;0.000;0.000;2023-03-31T16:23:26;5.22;;;1.73;;
48777;SDS011;34578;0.000;0.000;2023-03-31T16:28:30;2.83;;;1.55;;
48777;SDS011;34578;0.000;0.000;2023-03-31T16:33:52;4.18;;;1.65;;
48777;SDS011;34578;0.000;0.000;2023-03-31T16:38:54;6.05;;;1.40;;
48777;SDS011;34578;0.000;0.000;2023-03-31T16:43:55;4.43;;;1.53;;
48777;SDS011;34578;0.000;0.000;2023-03-31T16:48:55;7.73;;;2.27;;
48777;SDS011;34578;0.000;0.000;2023-03-31T16:53:55;4.90;;;2.07;;
48777;SDS011;34578;0.000;0.000;2023-03-31T16:58:56;3.57;;;1.83;;
48777;SDS011;34578;0.000;0.000;2023-03-31T17:03:56;2.57;;;1.73;;
48777;SDS011;34578;0.000;0.000;2023-03-31T17:08:56;3.73;;;1.40;;
48777;SDS011;34578;0.000;0.000;2023-03-31T17:13:57;3.25;;;1.58;;
48777;SDS011;34578;0.000;0.000;2023-03-31T17:18:59;6.68;;;1.42;;
48777;SDS011;34578;0.000;0.000;2023-03-31T17:23:59;3.88;;;1.45;;
48777;SDS011;34578;0.000;0.000;2023-03-31T17:29:00;4.07;;;1.57;;
48777;SDS011;34578;0.000;0.000;2023-03-31T17:34:00;2.97;;;1.67;;
48777;SDS011;34578;0.000;0.000;2023-03-31T17:39:01;4.00;;;1.40;;
48777;SDS011;34578;0.000;0.000;2023-03-31T17:44:04;2.83;;;1.65;;
48777;SDS011;34578;0.000;0.000;2023-03-31T17:49:06;3.10;;;1.27;;
48777;SDS011;34578;0.000;0.000;2023-03-31T17:54:07;4.63;;;1.90;;
48777;SDS011;34578;0.000;0.000;2023-03-31T17:59:07;5.03;;;1.90;;
48777;SDS011;34578;0.000;0.000;2023-03-31T18:04:09;8.73;;;1.48;;
48777;SDS011;34578;0.000;0.000;2023-03-31T18:09:10;3.50;;;1.85;;
48777;SDS011;34578;0.000;0.000;2023-03-31T18:14:10;2.93;;;1.40;;
48777;SDS011;34578;0.000;0.000;2023-03-31T18:19:11;3.50;;;1.27;;
48777;SDS011;34578;0.000;0.000;2023-03-31T18:24:11;3.45;;;1.05;;
48777;SDS011;34578;0.000;0.000;2023-03-31T18:29:12;4.13;;;1.83;;
48777;SDS011;34578;0.000;0.000;2023-03-31T18:34:13;2.58;;;1.33;;
48777;SDS011;34578;0.000;0.000;2023-03-31T18:39:15;2.83;;;1.30;;
48777;SDS011;34578;0.000;0.000;2023-03-31T18:44:15;2.10;;;1.00;;
48777;SDS011;34578;0.000;0.000;2023-03-31T18:49:16;3.40;;;1.92;;
48777;SDS011;34578;0.000;0.000;2023-03-31T18:54:19;6.53;;;1.83;;
48777;SDS011;34578;0.000;0.000;2023-03-31T18:59:20;5.47;;;1.98;;
48777;SDS011;34578;0.000;0.000;2023-03-31T19:04:20;3.20;;;1.33;;
48777;SDS011;34578;0.000;0.000;2023-03-31T19:09:21;2.13;;;1.10;;
48777;SDS011;34578;0.000;0.000;2023-03-31T19:14:24;3.97;;;1.23;;
48777;SDS011;34578;0.000;0.000;2023-03-31T19:19:25;2.25;;;1.40;;
48777;SDS011;34578;0.000;0.000;2023-03-31T19:24:26;3.63;;;1.20;;
48777;SDS011;34578;0.000;0.000;2023-03-31T19:29:26;2.60;;;1.10;;
48777;SDS011;34578;0.000;0.000;2023-03-31T19:34:29;3.70;;;1.38;;
48777;SDS011;34578;0.000;0.000;2023-03-31T19:39:29;3.60;;;1.03;;
48777;SDS011;34578;0.000;0.000;2023-03-31T19:44:29;2.27;;;1.30;;
48777;SDS011;34578;0.000;0.000;2023-03-31T19:49:30;2.70;;;1.50;;
48777;SDS011;34578;0.000;0.000;2023-03-31T19:54:30;2.90;;;1.50;;
48777;SDS011;34578;0.000;0.000;2023-03-31T19:59:31;4.45;;;2.65;;
48777;SDS011;34578;0.000;0.000;2023-03-31T20:04:31;6.30;;;2.00;;
48777;SDS011;34578;0.000;0.000;2023-03-31T20:09:32;3.05;;;1.10;;
48777;SDS011;34578;0.000;0.000;2023-03-31T20:14:33;3.58;;;1.23;;
48777;SDS011;34578;0.000;0.000;2023-03-31T20:19:33;3.27;;;1.20;;
48777;SDS011;34578;0.000;0.000;2023-03-31T20:24:34;1.88;;;1.08;;
48777;SDS011;34578;0.000;0.000;2023-03-31T20:29:34;1.53;;;0.80;;
48777;SDS011;34578;0.000;0.000;2023-03-31T20:34:34;3.60;;;1.67;;
48777;SDS011;34578;0.000;0.000;2023-03-31T20:39:35;2.30;;;1.20;;
48777;SDS011;34578;0.000;0.000;2023-03-31T20:44:36;1.77;;;1.02;;
48777;SDS011;34578;0.000;0.000;2023-03-31T20:49:36;3.60;;;2.40;;
48777;SDS011;34578;0.000;0.000;2023-03-31T20:54:37;3.72;;;1.60;;
48777;SDS011;34578;0.000;0.000;2023-03-31T20:59:37;2.13;;;1.00;;
48777;SDS011;34578;0.000;0.000;2023-03-31T21:04:40;1.77;;;1.10;;
48777;SDS011;34578;0.000;0.000;2023-03-31T21:09:41;3.08;;;1.30;;
48777;SDS011;34578;0.000;0.000;2023-03-31T21:14:41;1.20;;;0.90;;
48777;SDS011;34578;0.000;0.000;2023-03-31T21:19:41;1.73;;;0.87;;
48777;SDS011;34578;0.000;0.000;2023-03-31T21:24:42;2.70;;;1.10;;
48777;SDS011;34578;0.000;0.000;2023-03-31T21:29:42;2.53;;;1.10;;
48777;SDS011;34578;0.000;0.000;2023-03-31T21:34:42;1.77;;;1.13;;
48777;SDS011;34578;0.000;0.000;2023-03-31T21:39:43;6.90;;;1.70;;
48777;SDS011;34578;0.000;0.000;2023-03-31T21:44:43;4.70;;;1.43;;
48777;SDS011;34578;0.000;0.000;2023-03-31T21:49:43;5.43;;;1.50;;
48777;SDS011;34578;0.000;0.000;2023-03-31T21:54:44;5.07;;;1.33;;
48777;SDS011;34578;0.000;0.000;2023-03-31T21:59:45;3.67;;;1.63;;
48777;SDS011;34578;0.000;0.000;2023-03-31T22:04:45;5.40;;;2.13;;
48777;SDS011;34578;0.000;0.000;2023-03-31T22:09:45;5.97;;;1.40;;
48777;SDS011;34578;0.000;0.000;2023-03-31T22:14:46;3.20;;;1.00;;
48777;SDS011;34578;0.000;0.000;2023-03-31T22:19:46;1.73;;;1.05;;
48777;SDS011;34578;0.000;0.000;2023-03-31T22:24:47;1.83;;;1.05;;
48777;SDS011;34578;0.000;0.000;2023-03-31T22:29:50;3.83;;;1.40;;
48777;SDS011;34578;0.000;0.000;2023-03-31T22:34:50;2.63;;;1.10;;
48777;SDS011;34578;0.000;0.000;2023-03-31T22:39:50;2.03;;;0.90;;
48777;SDS011;34578;0.000;0.000;2023-03-31T22:44:51;3.80;;;1.40;;
48777;SDS011;34578;0.000;0.000;2023-03-31T22:49:51;3.80;;;1.40;;
48777;SDS011;34578;0.000;0.000;2023-03-31T22:54:52;6.55;;;2.40;;
48777;SDS011;34578;0.000;0.000;2023-03-31T22:59:52;6.00;;;1.70;;
48777;SDS011;34578;0.000;0.000;2023-03-31T23:04:53;5.27;;;1.90;;
48777;SDS011;34578;0.000;0.000;2023-03-31T23:09:53;6.43;;;2.10;;
48777;SDS011;34578;0.000;0.000;2023-03-31T23:14:53;6.27;;;1.90;;
48777;SDS011;34578;0.000;0.000;2023-03-31T23:19:54;8.45;;;2.20;;
48777;SDS011;34578;0.000;0.000;2023-03-31T23:24:54;7.00;;;2.13;;
48777;SDS011;34578;0.000;0.000;2023-03-31T23:29:55;6.23;;;2.60;;
48777;SDS011;34578;0.000;0.000;2023-03-31T23:34:55;9.17;;;3.40;;
48777;SDS011;34578;0.000;0.000;2023-03-31T23:39:56;7.03;;;1.98;;
48777;SDS011;34578;0.000;0.000;2023-03-31T23:44:56;5.67;;;1.77;;
48777;SDS011;34578;0.000;0.000;2023-03-31T23:49:57;4.23;;;2.00;;
48777;SDS011;34578;0.000;0.000;2023-03-31T23:54:57;7.72;;;1.98;;
48777;SDS011;34578;0.000;0.000;2023-03-31T23:59:58;5.70;;;2.57;;
